createdAt,value
2022-10-25T00:01:12.902Z,137.20
2022-10-25T00:06:34.545Z,138.43
2022-10-25T00:11:26.954Z,137.20
2022-10-25T00:16:26.853Z,137.42
2022-10-25T00:21:26.794Z,138.77
2022-10-25T00:26:26.730Z,139.35
2022-10-25T00:31:26.662Z,139.69
2022-10-25T00:36:26.585Z,139.93
2022-10-25T00:41:26.518Z,138.66
2022-10-25T00:46:26.449Z,139.69
2022-10-25T00:51:26.361Z,140.04
2022-10-25T00:56:26.322Z,140.27
2022-10-25T01:01:26.393Z,140.86
2022-10-25T01:06:26.193Z,140.98
2022-10-25T01:11:26.112Z,141.69
2022-10-25T01:16:26.048Z,141.21
2022-10-25T01:21:25.983Z,141.21
2022-10-25T01:26:25.919Z,141.81
2022-10-25T01:31:25.850Z,141.81
2022-10-25T01:36:25.798Z,142.89
2022-10-25T01:41:25.709Z,142.77
2022-10-25T01:46:25.648Z,142.40
2022-10-25T01:51:25.602Z,140.86
2022-10-25T01:56:25.509Z,141.45
2022-10-25T02:01:25.551Z,141.69
2022-10-25T02:06:25.388Z,140.74
2022-10-25T02:11:25.287Z,140.27
2022-10-25T02:16:25.233Z,139.00
2022-10-25T02:21:25.181Z,139.93
2022-10-25T02:26:25.084Z,140.16
2022-10-25T02:31:25.036Z,139.46
2022-10-25T02:36:24.960Z,140.62
2022-10-25T02:41:24.872Z,139.81
2022-10-25T02:46:24.842Z,140.86
2022-10-25T02:51:24.773Z,141.81
2022-10-25T02:56:24.680Z,142.16
2022-10-25T03:01:24.700Z,142.65
2022-10-25T03:06:24.576Z,141.57
2022-10-25T03:11:24.499Z,141.81
2022-10-25T03:16:24.415Z,140.98
2022-10-25T03:21:24.345Z,139.81
2022-10-25T03:26:24.297Z,140.39
2022-10-25T03:31:24.211Z,140.04
2022-10-25T03:36:24.153Z,139.69
2022-10-25T03:41:24.077Z,139.69
2022-10-25T03:46:24.017Z,139.69
2022-10-25T03:51:23.930Z,139.12
2022-10-25T03:56:23.872Z,139.93
2022-10-25T04:01:23.982Z,139.93
2022-10-25T04:06:23.751Z,139.46
2022-10-25T04:11:23.681Z,139.58
2022-10-25T04:16:31.174Z,139.93
2022-10-25T04:21:23.564Z,139.35
2022-10-25T04:26:23.480Z,138.43
2022-10-25T04:31:23.435Z,138.89
2022-10-25T04:36:23.372Z,137.87
2022-10-25T04:41:23.300Z,138.77
2022-10-25T04:46:23.234Z,138.89
2022-10-25T04:51:23.173Z,138.55
2022-10-25T04:56:23.099Z,137.31
2022-10-25T05:01:23.202Z,138.55
2022-10-25T05:06:22.965Z,138.09
2022-10-25T05:11:22.989Z,138.55
2022-10-25T05:16:22.827Z,137.76
2022-10-25T05:21:22.809Z,138.32
2022-10-25T05:26:22.692Z,138.21
2022-10-25T05:31:22.650Z,137.87
2022-10-25T05:36:22.561Z,137.76
2022-10-25T05:41:22.499Z,137.64
2022-10-25T05:46:22.452Z,137.08
2022-10-25T05:51:37.773Z,136.53
2022-10-25T05:56:23.307Z,135.76
2022-10-25T06:01:22.409Z,135.32
2022-10-25T06:06:22.155Z,134.68
2022-10-25T06:11:22.095Z,135.11
2022-10-25T06:16:22.036Z,134.46
2022-10-25T06:21:21.938Z,134.57
2022-10-25T06:26:21.921Z,133.93
2022-10-25T06:31:21.941Z,133.40
2022-10-25T06:36:21.762Z,133.19
2022-10-25T06:41:21.732Z,132.66
2022-10-25T06:46:21.658Z,132.15
2022-10-25T06:51:21.578Z,131.53
2022-10-25T06:56:21.628Z,129.91
2022-10-25T07:01:21.572Z,128.72
2022-10-25T07:06:21.494Z,127.26
2022-10-25T07:11:21.327Z,126.31
2022-10-25T07:16:21.367Z,125.65
2022-10-25T07:21:21.162Z,124.72
2022-10-25T07:26:21.145Z,123.00
2022-10-25T07:31:24.343Z,121.32
2022-10-25T07:36:22.922Z,119.76
2022-10-25T07:41:29.216Z,118.09
2022-10-25T07:46:29.902Z,115.82
